createdAt,value
2023-01-26T00:00:41.348Z,99274.54
2023-01-26T00:01:53.983Z,99268.64
2023-01-26T00:02:55.827Z,99267.17
2023-01-26T00:03:58.171Z,99270.61
2023-01-26T00:05:00.129Z,99266.80
2023-01-26T00:06:06.885Z,99264.33
2023-01-26T00:07:08.750Z,99261.20
2023-01-26T00:08:12.257Z,99267.25
2023-01-26T00:09:15.534Z,99264.77
2023-01-26T00:10:17.447Z,99265.83
2023-01-26T00:11:24.457Z,99268.15
2023-01-26T00:12:26.275Z,99265.59
2023-01-26T00:13:28.153Z,99264.06
2023-01-26T00:14:49.906Z,99262.52
2023-01-26T00:15:51.994Z,99260.19
2023-01-26T00:16:54.621Z,99261.46
2023-01-26T00:17:56.734Z,99261.34
2023-01-26T00:18:58.818Z,99260.48
2023-01-26T00:20:00.855Z,99261.08
2023-01-26T00:21:03.324Z,99259.73
2023-01-26T00:22:05.203Z,99259.16
2023-01-26T00:23:07.234Z,99258.48
2023-01-26T00:24:09.260Z,99252.52
2023-01-26T00:25:11.361Z,99250.92
2023-01-26T00:26:31.581Z,99249.77
2023-01-26T00:27:33.376Z,99245.87
2023-01-26T00:28:36.260Z,99249.98
2023-01-26T00:29:38.297Z,99251.75
2023-01-26T00:30:40.327Z,99253.27
2023-01-26T00:31:42.271Z,99252.88
2023-01-26T00:32:44.203Z,99248.60
2023-01-26T00:33:46.667Z,99246.96
2023-01-26T00:34:48.505Z,99243.34
2023-01-26T00:35:56.347Z,99243.55
2023-01-26T00:36:58.097Z,99240.44
2023-01-26T00:37:59.923Z,99240.03
2023-01-26T00:39:02.863Z,99245.56
2023-01-26T00:40:05.247Z,99242.75
2023-01-26T00:41:07.446Z,99243.92
2023-01-26T00:42:13.962Z,99244.67
2023-01-26T00:43:16.689Z,99243.06
2023-01-26T00:44:19.492Z,99244.04
2023-01-26T00:45:22.184Z,99244.41
2023-01-26T00:46:24.186Z,99248.85
2023-01-26T00:47:26.041Z,99250.81
2023-01-26T00:48:27.998Z,99253.77
2023-01-26T00:49:30.240Z,99249.46
2023-01-26T00:50:33.447Z,99248.41
2023-01-26T00:51:35.569Z,99249.19
2023-01-26T00:52:40.085Z,99246.66
2023-01-26T00:53:42.000Z,99247.04
2023-01-26T00:54:43.748Z,99249.56
2023-01-26T00:55:45.626Z,99248.02
2023-01-26T00:56:48.074Z,99246.92
2023-01-26T00:57:50.788Z,99246.27
2023-01-26T00:58:52.707Z,99248.84
2023-01-26T00:59:54.556Z,99248.05
2023-01-26T01:00:56.643Z,99246.14
2023-01-26T01:02:01.558Z,99244.18
2023-01-26T01:03:05.283Z,99244.51
2023-01-26T01:04:07.221Z,99247.05
2023-01-26T01:05:09.912Z,99242.29
2023-01-26T01:06:12.054Z,99244.73
2023-01-26T01:07:13.994Z,99240.70
2023-01-26T01:08:15.819Z,99239.88
2023-01-26T01:09:18.030Z,99244.22
2023-01-26T01:10:20.619Z,99245.59
2023-01-26T01:11:22.389Z,99242.35
2023-01-26T01:12:27.394Z,99241.84
2023-01-26T01:13:30.189Z,99240.34
2023-01-26T01:14:32.257Z,99241.96
2023-01-26T01:15:33.988Z,99238.98
2023-01-26T01:16:35.850Z,99242.20
2023-01-26T01:17:38.709Z,99241.58
2023-01-26T01:18:40.916Z,99245.41
2023-01-26T01:19:44.371Z,99243.81
2023-01-26T01:20:47.815Z,99239.98
2023-01-26T01:21:49.790Z,99234.74
2023-01-26T01:22:52.335Z,99233.10
2023-01-26T01:23:54.331Z,99229.91
2023-01-26T01:24:56.235Z,99230.48
2023-01-26T01:26:00.260Z,99229.02
2023-01-26T01:27:02.228Z,99232.77
2023-01-26T01:28:04.324Z,99228.48
2023-01-26T01:29:08.050Z,99227.23
2023-01-26T01:30:11.162Z,99222.34
2023-01-26T01:31:17.565Z,99218.55
2023-01-26T01:32:20.613Z,99216.58
2023-01-26T01:33:24.162Z,99217.79
2023-01-26T01:34:26.014Z,99217.69
2023-01-26T01:35:27.776Z,99218.41
2023-01-26T01:36:31.632Z,99215.08
2023-01-26T01:37:33.806Z,99218.92
2023-01-26T01:38:36.298Z,99217.59
2023-01-26T01:39:38.154Z,99216.40
2023-01-26T01:40:43.802Z,99213.89
2023-01-26T01:41:45.697Z,99210.36
2023-01-26T01:42:49.480Z,99206.84
2023-01-26T01:43:51.832Z,99206.88
2023-01-26T01:45:35.851Z,99202.30
2023-01-26T01:46:38.546Z,99201.84
2023-01-26T01:47:40.460Z,99199.98
2023-01-26T01:48:56.172Z,99201.73
2023-01-26T01:49:58.502Z,99200.41
2023-01-26T01:51:08.568Z,99197.63
2023-01-26T01:52:20.127Z,99197.08
2023-01-26T01:53:32.874Z,99198.17
2023-01-26T01:54:43.359Z,99198.27
2023-01-26T01:55:47.417Z,99197.30
2023-01-26T01:56:56.122Z,99194.42
2023-01-26T01:58:02.086Z,99191.17
2023-01-26T01:59:10.009Z,99188.95
2023-01-26T02:00:19.016Z,99186.98
2023-01-26T02:01:24.506Z,99190.48
2023-01-26T02:02:28.147Z,99188.15
2023-01-26T02:03:33.256Z,99187.67
2023-01-26T02:04:35.985Z,99186.42
2023-01-26T02:05:55.662Z,99187.03
2023-01-26T02:07:00.743Z,99185.66
2023-01-26T02:08:04.697Z,99183.52
2023-01-26T02:09:09.081Z,99185.69
2023-01-26T02:10:20.699Z,99184.25
2023-01-26T02:11:37.972Z,99182.78
2023-01-26T02:12:41.872Z,99178.50
2023-01-26T02:13:47.582Z,99180.70
2023-01-26T02:14:53.071Z,99178.70
2023-01-26T02:15:59.971Z,99176.02
2023-01-26T02:17:01.896Z,99173.71
2023-01-26T02:18:05.918Z,99172.29
2023-01-26T02:19:22.472Z,99171.70
2023-01-26T02:20:43.124Z,99168.27
2023-01-26T02:21:49.907Z,99166.39
2023-01-26T02:23:00.907Z,99165.93
2023-01-26T02:24:26.774Z,99163.37
2023-01-26T02:25:54.742Z,99160.89
2023-01-26T02:26:57.489Z,99163.66
2023-01-26T02:27:59.362Z,99158.70
2023-01-26T02:29:04.503Z,99159.86
2023-01-26T02:30:08.684Z,99160.97
2023-01-26T02:31:12.813Z,99161.64
2023-01-26T02:32:15.286Z,99158.20
2023-01-26T02:33:21.626Z,99157.15
2023-01-26T02:34:28.824Z,99156.57
2023-01-26T02:35:30.861Z,99156.17
2023-01-26T02:36:35.225Z,99157.29
2023-01-26T02:37:38.063Z,99151.50
2023-01-26T02:38:45.007Z,99150.52
2023-01-26T02:40:02.341Z,99150.85
2023-01-26T02:41:10.810Z,99147.91
2023-01-26T02:42:31.190Z,99146.38
2023-01-26T02:43:33.542Z,99139.84
2023-01-26T02:44:37.699Z,99139.39
2023-01-26T02:45:41.818Z,99140.64
2023-01-26T02:46:43.803Z,99136.46
2023-01-26T02:47:45.804Z,99132.31
2023-01-26T02:49:06.635Z,99131.71
2023-01-26T02:50:10.218Z,99127.60
2023-01-26T02:51:13.057Z,99130.45
2023-01-26T02:52:17.493Z,99129.00
2023-01-26T02:53:20.380Z,99126.89
2023-01-26T02:54:41.671Z,99126.90
2023-01-26T02:55:44.315Z,99127.89
2023-01-26T02:56:46.176Z,99124.44
2023-01-26T02:57:50.056Z,99126.64
2023-01-26T02:58:52.065Z,99125.10
2023-01-26T02:59:53.971Z,99118.06
2023-01-26T03:00:56.096Z,99120.55
2023-01-26T03:01:58.599Z,99115.61
2023-01-26T03:03:02.291Z,99112.44
2023-01-26T03:04:05.435Z,99110.00
2023-01-26T03:05:08.038Z,99113.65
2023-01-26T03:06:11.855Z,99110.84
2023-01-26T03:07:14.495Z,99108.36
2023-01-26T03:08:16.853Z,99103.48
2023-01-26T03:09:19.043Z,99103.04
2023-01-26T03:10:25.283Z,99102.84
2023-01-26T03:11:42.175Z,99099.34
2023-01-26T03:12:45.271Z,99098.59
2023-01-26T03:13:47.046Z,99098.30
2023-01-26T03:15:08.889Z,99099.48
2023-01-26T03:16:12.011Z,99094.98
2023-01-26T03:17:14.146Z,99096.05
2023-01-26T03:18:37.388Z,99092.41
2023-01-26T03:19:58.141Z,99094.05
2023-01-26T03:21:20.900Z,99091.23
2023-01-26T03:22:41.539Z,99092.90
2023-01-26T03:24:02.784Z,99092.84
2023-01-26T03:25:24.259Z,99092.81
2023-01-26T03:26:47.078Z,99091.30
2023-01-26T03:27:50.065Z,99087.91
2023-01-26T03:28:53.038Z,99088.20
2023-01-26T03:29:57.212Z,99086.27
2023-01-26T03:30:59.220Z,99087.34
2023-01-26T03:32:01.260Z,99085.96
2023-01-26T03:33:03.566Z,99086.06
2023-01-26T03:34:05.672Z,99088.06
2023-01-26T03:35:10.892Z,99087.61
2023-01-26T03:36:12.853Z,99088.06
2023-01-26T03:37:15.037Z,99085.17
2023-01-26T03:38:22.396Z,99083.27
2023-01-26T03:39:44.849Z,99082.30
2023-01-26T03:41:05.426Z,99078.89
2023-01-26T03:42:26.525Z,99078.70
2023-01-26T03:43:47.624Z,99075.15
2023-01-26T03:45:08.322Z,99074.51
2023-01-26T03:46:30.650Z,99076.61
2023-01-26T03:47:53.218Z,99077.15
2023-01-26T03:49:14.249Z,99075.77
2023-01-26T03:50:35.622Z,99075.46
2023-01-26T03:51:56.836Z,99074.34
2023-01-26T03:53:17.318Z,99070.83
2023-01-26T03:54:38.613Z,99064.04
2023-01-26T03:55:59.606Z,99062.21
2023-01-26T03:57:01.977Z,99059.30
2023-01-26T03:58:03.816Z,99054.61
2023-01-26T03:59:08.417Z,99055.14
2023-01-26T04:00:11.539Z,99051.98
2023-01-26T04:01:21.186Z,99050.80
2023-01-26T04:02:42.576Z,99051.30
2023-01-26T04:04:07.150Z,99047.90
2023-01-26T04:05:28.148Z,99045.55
2023-01-26T04:06:53.238Z,99048.27
2023-01-26T04:08:13.891Z,99046.40
2023-01-26T04:09:16.510Z,99048.86
2023-01-26T04:10:18.538Z,99046.73
2023-01-26T04:11:20.667Z,99049.09
2023-01-26T04:12:22.799Z,99050.69
2023-01-26T04:14:08.363Z,99048.18
2023-01-26T04:15:29.353Z,99046.55
2023-01-26T04:16:50.315Z,99044.27
2023-01-26T04:18:11.800Z,99043.58
2023-01-26T04:19:32.592Z,99044.08
2023-01-26T04:20:53.644Z,99043.02
2023-01-26T04:21:56.075Z,99042.38
2023-01-26T04:22:57.975Z,99045.96
2023-01-26T04:24:01.857Z,99047.27
2023-01-26T04:25:03.979Z,99050.79
2023-01-26T04:26:05.864Z,99054.69
2023-01-26T04:27:08.027Z,99054.44
2023-01-26T04:28:13.146Z,99050.92
2023-01-26T04:29:16.931Z,99051.50
2023-01-26T04:30:20.898Z,99049.00
2023-01-26T04:31:23.035Z,99050.06
2023-01-26T04:32:27.406Z,99046.98
2023-01-26T04:33:29.503Z,99049.94
2023-01-26T04:34:31.681Z,99051.38
2023-01-26T04:35:34.044Z,99049.08
2023-01-26T04:36:36.097Z,99048.70
2023-01-26T04:37:39.095Z,99052.66
2023-01-26T04:38:40.908Z,99053.39
2023-01-26T04:39:42.937Z,99051.27
2023-01-26T04:40:44.831Z,99049.51
2023-01-26T04:41:47.284Z,99050.57
2023-01-26T04:42:50.833Z,99049.98
2023-01-26T04:43:52.680Z,99044.62
2023-01-26T04:44:54.760Z,99046.59
2023-01-26T04:46:01.088Z,99044.27
2023-01-26T04:47:03.985Z,99039.62
2023-01-26T04:48:06.279Z,99040.09
2023-01-26T04:49:09.260Z,99038.58
2023-01-26T04:50:11.549Z,99036.30
2023-01-26T04:51:17.591Z,99036.95
2023-01-26T04:52:19.676Z,99034.99
2023-01-26T04:53:21.832Z,99033.00
2023-01-26T04:54:23.936Z,99037.24
2023-01-26T04:55:25.936Z,99035.94
2023-01-26T04:56:35.995Z,99036.63
2023-01-26T04:57:38.265Z,99037.45
2023-01-26T04:58:40.600Z,99037.31
2023-01-26T04:59:42.460Z,99034.95
2023-01-26T05:00:45.577Z,99034.75
2023-01-26T05:01:47.709Z,99032.52
2023-01-26T05:02:50.367Z,99029.89
2023-01-26T05:03:52.896Z,99030.09
2023-01-26T05:04:55.270Z,99033.41
2023-01-26T05:05:57.180Z,99031.71
2023-01-26T05:07:00.032Z,99033.36
2023-01-26T05:08:03.187Z,99035.78
2023-01-26T05:09:09.216Z,99037.98
2023-01-26T05:10:15.636Z,99039.58
2023-01-26T05:11:28.215Z,99040.94
2023-01-26T05:12:35.686Z,99038.52
2023-01-26T05:13:47.417Z,99041.08
2023-01-26T05:14:58.992Z,99039.06
2023-01-26T05:16:27.405Z,99036.77
2023-01-26T05:17:42.687Z,99035.65
2023-01-26T05:18:59.115Z,99037.80
2023-01-26T05:20:42.174Z,99033.27
2023-01-26T05:21:52.083Z,99030.60
2023-01-26T05:22:54.647Z,99030.27
2023-01-26T05:24:15.531Z,99031.41
2023-01-26T05:25:36.176Z,99030.96
2023-01-26T05:26:42.501Z,99029.50
2023-01-26T05:27:48.674Z,99029.61
2023-01-26T05:28:50.587Z,99027.45
2023-01-26T05:29:55.025Z,99029.55
2023-01-26T05:30:57.745Z,99031.23
2023-01-26T05:31:59.758Z,99034.05
2023-01-26T05:33:04.945Z,99032.25
2023-01-26T05:34:07.151Z,99031.89
2023-01-26T05:35:11.658Z,99031.11
2023-01-26T05:36:13.552Z,99030.95
2023-01-26T05:37:16.282Z,99030.98
2023-01-26T05:38:21.850Z,99031.45
2023-01-26T05:39:23.805Z,99026.14
2023-01-26T05:40:27.039Z,99027.27
2023-01-26T05:41:28.939Z,99026.95
2023-01-26T05:42:49.037Z,99031.83
2023-01-26T05:44:04.009Z,99027.02
2023-01-26T05:45:29.365Z,99026.48
2023-01-26T05:46:34.401Z,99027.88
2023-01-26T05:47:37.459Z,99026.48
2023-01-26T05:48:39.660Z,99029.50
2023-01-26T05:49:42.913Z,99028.88
2023-01-26T05:50:48.203Z,99025.95
2023-01-26T05:51:53.147Z,99029.22
2023-01-26T05:52:54.948Z,99028.03
2023-01-26T05:53:56.807Z,99023.45
2023-01-26T05:55:00.071Z,99024.20
2023-01-26T05:56:01.943Z,99027.26
2023-01-26T05:57:06.250Z,99032.08
2023-01-26T05:58:11.471Z,99033.02
2023-01-26T05:59:14.157Z,99029.79
2023-01-26T06:00:17.958Z,99026.74
2023-01-26T06:01:25.277Z,99025.03
2023-01-26T06:02:32.273Z,99023.20
2023-01-26T06:03:34.183Z,99024.05
2023-01-26T06:04:36.303Z,99027.70
2023-01-26T06:05:39.123Z,99027.36
2023-01-26T06:06:48.581Z,99025.52
2023-01-26T06:08:43.754Z,99025.52
2023-01-26T06:10:45.355Z,99019.42
2023-01-26T06:11:59.535Z,99014.92
2023-01-26T06:13:20.133Z,99010.20
2023-01-26T06:14:28.851Z,99011.71
2023-01-26T06:15:30.994Z,99007.95
2023-01-26T06:16:34.184Z,99009.48
2023-01-26T06:17:36.146Z,99008.77
2023-01-26T06:18:40.683Z,99008.68
2023-01-26T06:19:42.617Z,99006.81
2023-01-26T06:20:44.535Z,99005.75
2023-01-26T06:21:46.542Z,99003.92
2023-01-26T06:22:48.555Z,99002.00
2023-01-26T06:23:50.765Z,99004.05
2023-01-26T06:24:53.147Z,99007.96
2023-01-26T06:26:00.458Z,99005.17
2023-01-26T06:27:07.179Z,99006.39
2023-01-26T06:28:09.820Z,99006.65
2023-01-26T06:29:12.445Z,99005.63
2023-01-26T06:30:16.056Z,99009.33
2023-01-26T06:31:18.143Z,99010.36
2023-01-26T06:32:20.289Z,99013.51
2023-01-26T06:33:26.482Z,99010.58
2023-01-26T06:34:28.829Z,99011.39
2023-01-26T06:35:31.076Z,99014.25
2023-01-26T06:36:36.350Z,99010.36
2023-01-26T06:37:39.719Z,99011.17
2023-01-26T06:38:50.716Z,99005.70
2023-01-26T06:39:53.186Z,99007.56
2023-01-26T06:40:55.757Z,99007.70
2023-01-26T06:41:57.713Z,99008.27
2023-01-26T06:42:59.711Z,99006.95
2023-01-26T06:44:01.613Z,99006.66
2023-01-26T06:45:04.977Z,99009.27
2023-01-26T06:46:07.379Z,99008.92
2023-01-26T06:47:10.005Z,99008.16
2023-01-26T06:48:12.108Z,99006.52
2023-01-26T06:49:14.145Z,99009.79
2023-01-26T06:50:20.022Z,99002.84
2023-01-26T06:51:23.013Z,99002.43
2023-01-26T06:52:32.737Z,99001.24
2023-01-26T06:53:56.103Z,99008.08
2023-01-26T06:55:05.132Z,99006.65
2023-01-26T06:56:28.961Z,99009.30
2023-01-26T06:57:49.782Z,99009.95
2023-01-26T06:59:10.861Z,99008.23
2023-01-26T07:00:31.151Z,99010.91
2023-01-26T07:01:49.925Z,99011.88
2023-01-26T07:02:52.085Z,99011.39
2023-01-26T07:03:55.528Z,99008.25
2023-01-26T07:04:57.869Z,99013.73
2023-01-26T07:05:59.637Z,99008.14
2023-01-26T07:07:01.664Z,99010.42
2023-01-26T07:08:06.563Z,99011.86
2023-01-26T07:09:08.449Z,99011.50
2023-01-26T07:10:11.537Z,99013.13
2023-01-26T07:11:14.857Z,99011.44
2023-01-26T07:12:16.952Z,99013.00
2023-01-26T07:13:18.885Z,99009.40
2023-01-26T07:14:21.089Z,99008.52
2023-01-26T07:15:23.050Z,99005.91
2023-01-26T07:16:25.489Z,99007.14
2023-01-26T07:17:27.325Z,99007.27
2023-01-26T07:18:30.482Z,99007.39
2023-01-26T07:19:33.869Z,99007.65
2023-01-26T07:20:37.300Z,99004.41
2023-01-26T07:21:39.424Z,99006.63
2023-01-26T07:22:41.351Z,99010.17
2023-01-26T07:23:43.510Z,99009.14
2023-01-26T07:24:45.436Z,99012.42
2023-01-26T07:25:47.370Z,99016.27
2023-01-26T07:26:49.620Z,99012.30
2023-01-26T07:27:58.539Z,99011.48
2023-01-26T07:29:00.378Z,99008.08
2023-01-26T07:30:02.214Z,99007.88
2023-01-26T07:31:06.314Z,99009.34
2023-01-26T07:32:08.201Z,99009.81
2023-01-26T07:33:10.252Z,99007.55
2023-01-26T07:34:12.500Z,99004.09
2023-01-26T07:35:14.875Z,99003.93
2023-01-26T07:36:16.698Z,99005.26
2023-01-26T07:37:18.597Z,99008.60
2023-01-26T07:38:20.977Z,99006.23
2023-01-26T07:39:23.028Z,99004.31
2023-01-26T07:40:25.344Z,99005.90
2023-01-26T07:41:27.264Z,99003.61
2023-01-26T07:42:31.136Z,99003.85
2023-01-26T07:43:40.525Z,99003.89
2023-01-26T07:44:45.554Z,98999.98
2023-01-26T07:45:53.366Z,98998.45
2023-01-26T07:46:55.319Z,98996.93
2023-01-26T07:47:58.007Z,98992.31
2023-01-26T07:48:59.823Z,98992.31
2023-01-26T07:50:01.930Z,98988.81
2023-01-26T07:51:05.205Z,98985.56
2023-01-26T07:52:08.865Z,98985.77
2023-01-26T07:53:15.018Z,98988.89
2023-01-26T07:54:16.870Z,98985.95
2023-01-26T07:55:26.255Z,98985.73
2023-01-26T07:56:28.143Z,98983.61
2023-01-26T07:57:30.706Z,98978.55
2023-01-26T07:58:32.628Z,98976.12
2023-01-26T07:59:34.657Z,98974.40
2023-01-26T08:00:36.736Z,98976.16
2023-01-26T08:01:39.530Z,98978.88
2023-01-26T08:02:42.097Z,98981.73
2023-01-26T08:03:47.511Z,98979.95
2023-01-26T08:04:49.496Z,98978.14
2023-01-26T08:05:52.996Z,98979.08
2023-01-26T08:06:55.160Z,98980.84
2023-01-26T08:08:00.784Z,98979.88
2023-01-26T08:09:02.618Z,98979.92
2023-01-26T08:10:04.920Z,98978.23
2023-01-26T08:11:07.898Z,98978.81
2023-01-26T08:12:09.773Z,98980.18
2023-01-26T08:13:11.674Z,98976.73
2023-01-26T08:14:13.734Z,98980.86
2023-01-26T08:15:15.722Z,98982.52
2023-01-26T08:16:18.217Z,98984.38
2023-01-26T08:17:20.288Z,98983.91
2023-01-26T08:18:22.438Z,98988.55
2023-01-26T08:19:24.388Z,98988.85
2023-01-26T08:20:26.236Z,98990.64
2023-01-26T08:21:28.987Z,98992.47
2023-01-26T08:22:31.073Z,98990.75
2023-01-26T08:23:33.145Z,98991.73
2023-01-26T08:24:35.036Z,98992.17
2023-01-26T08:25:36.795Z,98991.77
2023-01-26T08:26:38.855Z,98992.50
2023-01-26T08:27:40.753Z,98992.42
2023-01-26T08:28:42.589Z,98998.71
2023-01-26T08:29:44.675Z,98997.24
2023-01-26T08:30:46.692Z,98995.80
2023-01-26T08:31:48.883Z,98996.84
2023-01-26T08:32:50.798Z,98993.95
2023-01-26T08:33:54.441Z,98993.66
2023-01-26T08:34:56.402Z,98993.80
2023-01-26T08:36:02.618Z,98994.61
2023-01-26T08:37:04.586Z,98998.92
2023-01-26T08:38:06.659Z,99000.84
2023-01-26T08:39:08.691Z,99004.63
2023-01-26T08:40:11.827Z,99000.98
2023-01-26T08:41:14.012Z,99000.25
2023-01-26T08:42:15.849Z,99001.80
2023-01-26T08:43:17.643Z,99004.56
2023-01-26T08:44:19.713Z,98999.98
2023-01-26T08:45:22.070Z,99002.69
2023-01-26T08:46:23.882Z,99004.94
2023-01-26T08:47:25.871Z,99006.06
2023-01-26T08:48:29.662Z,99007.15
2023-01-26T08:49:31.470Z,99009.58
2023-01-26T08:50:33.320Z,99009.52
2023-01-26T08:51:35.501Z,99009.20
2023-01-26T08:52:37.840Z,99008.38
2023-01-26T08:53:39.680Z,99010.17
2023-01-26T08:54:41.643Z,99014.66
2023-01-26T08:55:43.739Z,99014.37
2023-01-26T08:56:45.716Z,99015.95
2023-01-26T08:57:52.761Z,99017.75
2023-01-26T08:58:54.613Z,99016.77
2023-01-26T08:59:56.534Z,99015.34
2023-01-26T09:00:58.576Z,99013.95
2023-01-26T09:02:00.601Z,99013.71
2023-01-26T09:03:05.469Z,99016.60
2023-01-26T09:04:07.618Z,99018.51
2023-01-26T09:05:10.053Z,99016.05
2023-01-26T09:06:14.900Z,99020.31
2023-01-26T09:07:16.767Z,99015.94
2023-01-26T09:08:18.651Z,99016.29
2023-01-26T09:09:20.664Z,99016.83
2023-01-26T09:10:23.840Z,99016.05
2023-01-26T09:11:25.841Z,99017.58
2023-01-26T09:12:27.734Z,99016.70
2023-01-26T09:13:29.910Z,99017.98
2023-01-26T09:14:31.787Z,99018.48
2023-01-26T09:15:33.837Z,99021.90
2023-01-26T09:16:35.776Z,99019.48
2023-01-26T09:17:37.773Z,99023.95
2023-01-26T09:18:39.688Z,99023.36
2023-01-26T09:19:43.037Z,99026.60
2023-01-26T09:20:46.252Z,99031.01
2023-01-26T09:21:53.887Z,99029.70
2023-01-26T09:22:55.798Z,99027.08
2023-01-26T09:23:57.872Z,99026.96
2023-01-26T09:24:59.681Z,99027.85
2023-01-26T09:26:01.992Z,99024.02
2023-01-26T09:27:03.914Z,99024.08
2023-01-26T09:28:06.728Z,99021.88
2023-01-26T09:29:08.892Z,99019.90
2023-01-26T09:30:11.690Z,99020.27
2023-01-26T09:31:13.680Z,99020.19
2023-01-26T09:32:15.722Z,99016.61
2023-01-26T09:33:17.657Z,99018.73
2023-01-26T09:34:19.661Z,99018.10
2023-01-26T09:35:21.856Z,99015.73
2023-01-26T09:36:23.640Z,99017.04
2023-01-26T09:37:25.560Z,99011.15
2023-01-26T09:38:27.386Z,99009.86
2023-01-26T09:39:29.288Z,99006.95
2023-01-26T09:40:41.555Z,99005.14
2023-01-26T09:42:17.205Z,99003.56
2023-01-26T09:43:55.115Z,99000.20
2023-01-26T09:45:23.314Z,99001.86
2023-01-26T09:46:46.831Z,98996.85
2023-01-26T09:48:25.346Z,98997.11
2023-01-26T09:49:41.918Z,98997.77
2023-01-26T09:50:58.109Z,98999.29
2023-01-26T09:52:18.265Z,99000.02
2023-01-26T09:53:35.663Z,98999.55
2023-01-26T09:54:44.810Z,98998.33
2023-01-26T09:55:49.080Z,98997.11
2023-01-26T09:56:50.951Z,98993.70
2023-01-26T09:58:48.817Z,98995.92
2023-01-26T10:00:02.916Z,98988.02
2023-01-26T10:01:22.176Z,98983.73
2023-01-26T10:02:45.833Z,98981.34
2023-01-26T10:04:03.301Z,98974.39
2023-01-26T10:05:16.400Z,98976.50
2023-01-26T10:06:29.123Z,98976.33
2023-01-26T10:07:45.628Z,98973.34
2023-01-26T10:08:50.215Z,98973.95
2023-01-26T10:09:53.956Z,98977.68
2023-01-26T10:11:03.132Z,98975.79
2023-01-26T10:12:31.758Z,98974.30
2023-01-26T10:13:35.053Z,98973.69
2023-01-26T10:14:43.007Z,98970.98
2023-01-26T10:15:52.101Z,98965.71
2023-01-26T10:16:54.088Z,98966.98
2023-01-26T10:17:59.150Z,98967.67
2023-01-26T10:19:11.225Z,98965.04
2023-01-26T10:20:24.220Z,98965.37
2023-01-26T10:21:38.653Z,98967.55
2023-01-26T10:22:46.520Z,98963.91
2023-01-26T10:23:49.840Z,98961.17
2023-01-26T10:24:55.391Z,98959.84
2023-01-26T10:26:08.067Z,98960.95
2023-01-26T10:27:14.791Z,98960.52
2023-01-26T10:28:30.361Z,98961.13
2023-01-26T10:29:32.248Z,98961.17
2023-01-26T10:30:34.509Z,98957.29
2023-01-26T10:31:36.612Z,98953.93
2023-01-26T10:32:44.215Z,98952.49
2023-01-26T10:34:11.072Z,98952.61
2023-01-26T10:35:31.089Z,98950.00
2023-01-26T10:36:33.061Z,98949.44
2023-01-26T10:37:35.091Z,98950.06
2023-01-26T10:38:37.443Z,98950.34
2023-01-26T10:39:59.789Z,98952.23
2023-01-26T10:41:04.432Z,98950.75
2023-01-26T10:42:19.157Z,98952.52
2023-01-26T10:43:21.125Z,98950.23
2023-01-26T10:44:38.323Z,98950.27
2023-01-26T10:45:46.989Z,98950.05
2023-01-26T10:47:03.792Z,98948.16
2023-01-26T10:48:19.137Z,98948.16
2023-01-26T10:49:22.424Z,98946.81
2023-01-26T10:50:25.778Z,98943.65
2023-01-26T10:51:36.563Z,98945.33
2023-01-26T10:52:38.381Z,98941.64
2023-01-26T10:53:40.267Z,98940.02
2023-01-26T10:54:43.983Z,98936.06
2023-01-26T10:56:00.844Z,98935.48
2023-01-26T10:57:18.513Z,98935.80
2023-01-26T10:58:44.771Z,98933.10
2023-01-26T11:00:20.058Z,98929.35
2023-01-26T11:01:27.440Z,98926.97
2023-01-26T11:02:31.848Z,98923.23
2023-01-26T11:03:33.801Z,98921.69
2023-01-26T11:04:35.751Z,98920.96
2023-01-26T11:05:38.009Z,98921.50
2023-01-26T11:06:39.932Z,98919.36
2023-01-26T11:07:45.044Z,98917.48
2023-01-26T11:08:47.206Z,98919.11
2023-01-26T11:09:53.290Z,98914.66
2023-01-26T11:10:57.267Z,98915.80
2023-01-26T11:12:02.836Z,98917.11
2023-01-26T11:13:14.570Z,98910.96
2023-01-26T11:14:19.326Z,98911.21
2023-01-26T11:15:24.567Z,98909.41
2023-01-26T11:16:28.274Z,98905.48
2023-01-26T11:17:43.353Z,98905.85
2023-01-26T11:19:08.847Z,98901.90
2023-01-26T11:20:31.950Z,98900.79
2023-01-26T11:21:44.708Z,98899.08
2023-01-26T11:23:09.244Z,98900.64
2023-01-26T11:24:34.750Z,98901.61
2023-01-26T11:25:49.327Z,98896.79
2023-01-26T11:27:16.628Z,98894.21
2023-01-26T11:28:43.359Z,98899.08
2023-01-26T11:30:19.045Z,98893.11
2023-01-26T11:31:43.039Z,98892.89
2023-01-26T11:33:12.827Z,98891.51
2023-01-26T11:34:56.513Z,98892.69
2023-01-26T11:36:24.429Z,98892.36
2023-01-26T11:37:44.310Z,98890.31
2023-01-26T11:39:18.934Z,98890.54
2023-01-26T11:40:32.267Z,98888.09
2023-01-26T11:41:55.462Z,98885.84
2023-01-26T11:43:19.276Z,98888.04
2023-01-26T11:44:40.922Z,98888.98
2023-01-26T11:46:03.254Z,98890.08
2023-01-26T11:47:35.827Z,98885.86
2023-01-26T11:49:07.608Z,98885.48
2023-01-26T11:50:28.905Z,98878.70
2023-01-26T11:52:02.792Z,98880.74
2023-01-26T11:53:30.829Z,98878.40
2023-01-26T11:54:58.869Z,98875.98
2023-01-26T11:56:26.019Z,98875.17
2023-01-26T11:57:28.708Z,98874.43
2023-01-26T11:58:42.717Z,98876.59
2023-01-26T12:00:28.679Z,98877.98
2023-01-26T12:01:52.093Z,98875.48
2023-01-26T12:03:05.733Z,98874.02
2023-01-26T12:04:21.818Z,98874.79
2023-01-26T12:05:29.851Z,98872.55
2023-01-26T12:06:42.485Z,98873.16
2023-01-26T12:08:12.722Z,98871.11
2023-01-26T12:09:44.521Z,98863.67
2023-01-26T12:10:56.774Z,98863.75
2023-01-26T12:12:32.333Z,98860.73
2023-01-26T12:13:45.908Z,98863.11
2023-01-26T12:15:17.566Z,98862.82
2023-01-26T12:16:44.222Z,98862.12
2023-01-26T12:18:00.636Z,98865.83
2023-01-26T12:19:33.480Z,98865.58
2023-01-26T12:20:41.536Z,98864.38
2023-01-26T12:21:45.891Z,98859.55
2023-01-26T12:23:09.216Z,98861.36
2023-01-26T12:24:54.028Z,98856.89
2023-01-26T12:26:11.533Z,98855.85
2023-01-26T12:27:37.493Z,98854.83
2023-01-26T12:29:09.840Z,98854.58
2023-01-26T12:30:20.663Z,98855.44
2023-01-26T12:31:35.791Z,98855.20
2023-01-26T12:32:37.882Z,98856.67
2023-01-26T12:33:40.150Z,98858.96
2023-01-26T12:34:42.514Z,98860.88
2023-01-26T12:35:56.957Z,98861.66
2023-01-26T12:37:16.945Z,98858.25
2023-01-26T12:38:42.717Z,98857.91
2023-01-26T12:39:51.220Z,98860.02
2023-01-26T12:41:11.516Z,98859.84
2023-01-26T12:42:19.288Z,98866.10
2023-01-26T12:43:46.264Z,98862.34
2023-01-26T12:45:02.478Z,98865.03
2023-01-26T12:46:08.337Z,98863.80
2023-01-26T12:47:32.737Z,98862.73
2023-01-26T12:49:04.101Z,98860.96
2023-01-26T12:50:15.400Z,98860.73
2023-01-26T12:51:30.306Z,98861.71
2023-01-26T12:52:42.618Z,98859.15
2023-01-26T12:54:14.410Z,98859.36
2023-01-26T12:55:23.102Z,98856.31
2023-01-26T12:56:47.670Z,98856.05
2023-01-26T12:58:05.249Z,98856.08
2023-01-26T12:59:48.235Z,98854.77
2023-01-26T13:01:11.820Z,98854.22
2023-01-26T13:02:13.943Z,98851.97
2023-01-26T13:03:22.948Z,98849.56
2023-01-26T13:04:25.753Z,98850.11
2023-01-26T13:05:36.426Z,98848.73
2023-01-26T13:06:38.760Z,98848.31
2023-01-26T13:07:40.955Z,98844.42
2023-01-26T13:08:54.029Z,98845.05
2023-01-26T13:10:14.964Z,98842.63
2023-01-26T13:11:39.211Z,98839.48
2023-01-26T13:12:55.157Z,98841.45
2023-01-26T13:13:57.766Z,98838.88
2023-01-26T13:15:01.035Z,98839.56
2023-01-26T13:16:18.040Z,98837.48
2023-01-26T13:17:20.225Z,98841.07
2023-01-26T13:19:08.761Z,98839.73
2023-01-26T13:20:43.581Z,98836.58
2023-01-26T13:21:45.390Z,98841.03
2023-01-26T13:22:47.736Z,98839.52